sensor_id;sensor_type;location;lat;lon;timestamp;pressure;altitude;pressure_sealevel;temperature;humidity
36726;BME280;44936;52.086;5.150;2023-04-28T00:01:07;101991.25;;;8.75;100.00
36726;BME280;44936;52.086;5.150;2023-04-28T00:03:32;102003.91;;;8.92;100.00
36726;BME280;44936;52.086;5.150;2023-04-28T00:05:57;102004.84;;;8.94;100.00
36726;BME280;44936;52.086;5.150;2023-04-28T00:08:23;101985.50;;;8.89;100.00
36726;BME280;44936;52.086;5.150;2023-04-28T00:10:51;101968.63;;;8.77;100.00
36726;BME280;44936;52.086;5.150;2023-04-28T00:13:16;101952.09;;;8.78;100.00
36726;BME280;44936;52.086;5.150;2023-04-28T00:15:42;101964.63;;;8.90;100.00
36726;BME280;44936;52.086;5.150;2023-04-28T00:18:07;101954.06;;;8.87;100.00
36726;BME280;44936;52.086;5.150;2023-04-28T00:20:32;101957.66;;;8.91;100.00
36726;BME280;44936;52.086;5.150;2023-04-28T00:22:57;101955.88;;;8.90;100.00
36726;BME280;44936;52.086;5.150;2023-04-28T00:25:23;101947.44;;;9.00;100.00
36726;BME280;44936;52.086;5.150;2023-04-28T00:27:48;101930.28;;;8.78;100.00
36726;BME280;44936;52.086;5.150;2023-04-28T00:30:14;101928.59;;;8.80;100.00
36726;BME280;44936;52.086;5.150;2023-04-28T00:32:39;101939.09;;;8.82;100.00
36726;BME280;44936;52.086;5.150;2023-04-28T00:35:05;101941.81;;;8.85;100.00
36726;BME280;44936;52.086;5.150;2023-04-28T00:37:35;101939.72;;;8.73;100.00
36726;BME280;44936;52.086;5.150;2023-04-28T00:40:00;101929.25;;;8.73;100.00
36726;BME280;44936;52.086;5.150;2023-04-28T00:42:26;101934.25;;;8.65;100.00
36726;BME280;44936;52.086;5.150;2023-04-28T00:44:51;101920.00;;;8.54;100.00
36726;BME280;44936;52.086;5.150;2023-04-28T00:47:17;101926.31;;;8.61;100.00
36726;BME280;44936;52.086;5.150;2023-04-28T00:49:43;101929.94;;;8.66;100.00
36726;BME280;44936;52.086;5.150;2023-04-28T00:52:09;101918.41;;;8.59;100.00
36726;BME280;44936;52.086;5.150;2023-04-28T00:54:35;101907.09;;;8.60;100.00
36726;BME280;44936;52.086;5.150;2023-04-28T00:57:01;101895.63;;;8.55;100.00
36726;BME280;44936;52.086;5.150;2023-04-28T00:59:27;101903.66;;;8.61;100.00
36726;BME280;44936;52.086;5.150;2023-04-28T01:01:53;101880.66;;;8.49;100.00
36726;BME280;44936;52.086;5.150;2023-04-28T01:04:20;101868.78;;;8.61;100.00
36726;BME280;44936;52.086;5.150;2023-04-28T01:06:46;101858.88;;;8.49;100.00
36726;BME280;44936;52.086;5.150;2023-04-28T01:09:12;101878.97;;;8.51;100.00
36726;BME280;44936;52.086;5.150;2023-04-28T01:11:37;101857.06;;;8.48;100.00
36726;BME280;44936;52.086;5.150;2023-04-28T01:14:03;101854.44;;;8.48;100.00
36726;BME280;44936;52.086;5.150;2023-04-28T01:16:29;101859.00;;;8.55;100.00
36726;BME280;44936;52.086;5.150;2023-04-28T01:18:56;101850.28;;;8.55;100.00
36726;BME280;44936;52.086;5.150;2023-04-28T01:21:26;101851.28;;;8.58;100.00
36726;BME280;44936;52.086;5.150;2023-04-28T01:23:55;101848.72;;;8.61;100.00
36726;BME280;44936;52.086;5.150;2023-04-28T01:26:21;101838.34;;;8.64;100.00
36726;BME280;44936;52.086;5.150;2023-04-28T01:28:46;101841.03;;;8.66;100.00
36726;BME280;44936;52.086;5.150;2023-04-28T01:31:12;101841.09;;;8.69;100.00
36726;BME280;44936;52.086;5.150;2023-04-28T01:33:37;101829.66;;;8.65;100.00
36726;BME280;44936;52.086;5.150;2023-04-28T01:36:02;101829.75;;;8.68;100.00
36726;BME280;44936;52.086;5.150;2023-04-28T01:38:28;101807.84;;;8.65;100.00
36726;BME280;44936;52.086;5.150;2023-04-28T01:40:54;101824.66;;;8.74;100.00
36726;BME280;44936;52.086;5.150;2023-04-28T01:43:19;101828.91;;;8.69;100.00
36726;BME280;44936;52.086;5.150;2023-04-28T01:45:44;101826.47;;;8.75;100.00
36726;BME280;44936;52.086;5.150;2023-04-28T01:48:10;101828.06;;;8.70;100.00
36726;BME280;44936;52.086;5.150;2023-04-28T01:50:35;101824.66;;;8.74;100.00
36726;BME280;44936;52.086;5.150;2023-04-28T01:53:00;101822.03;;;8.74;100.00
36726;BME280;44936;52.086;5.150;2023-04-28T01:55:26;101820.47;;;8.81;100.00
36726;BME280;44936;52.086;5.150;2023-04-28T01:57:51;101802.59;;;8.65;100.00
36726;BME280;44936;52.086;5.150;2023-04-28T02:00:17;101810.66;;;8.72;100.00
36726;BME280;44936;52.086;5.150;2023-04-28T02:02:42;101800.38;;;8.78;100.00
36726;BME280;44936;52.086;5.150;2023-04-28T02:05:07;101794.97;;;8.72;100.00
36726;BME280;44936;52.086;5.150;2023-04-28T02:07:33;101810.84;;;8.78;100.00
36726;BME280;44936;52.086;5.150;2023-04-28T02:09:58;101811.72;;;8.79;100.00
36726;BME280;44936;52.086;5.150;2023-04-28T02:12:23;101807.44;;;8.83;100.00
36726;BME280;44936;52.086;5.150;2023-04-28T02:14:49;101802.13;;;8.79;100.00
36726;BME280;44936;52.086;5.150;2023-04-28T02:17:15;101800.31;;;8.75;100.00
36726;BME280;44936;52.086;5.150;2023-04-28T02:19:40;101802.31;;;8.86;100.00
36726;BME280;44936;52.086;5.150;2023-04-28T02:22:06;101798.66;;;8.80;100.00
36726;BME280;44936;52.086;5.150;2023-04-28T02:24:34;101796.09;;;8.82;100.00
36726;BME280;44936;52.086;5.150;2023-04-28T02:27:00;101797.09;;;8.87;100.00
36726;BME280;44936;52.086;5.150;2023-04-28T02:29:26;101788.31;;;8.84;100.00
36726;BME280;44936;52.086;5.150;2023-04-28T02:31:51;101784.78;;;8.83;100.00
36726;BME280;44936;52.086;5.150;2023-04-28T02:34:17;101760.94;;;8.71;100.00
36726;BME280;44936;52.086;5.150;2023-04-28T02:36:42;101777.75;;;8.80;100.00
36726;BME280;44936;52.086;5.150;2023-04-28T02:39:08;101768.84;;;8.74;100.00
36726;BME280;44936;52.086;5.150;2023-04-28T02:41:33;101769.00;;;8.80;100.00
36726;BME280;44936;52.086;5.150;2023-04-28T02:43:59;101775.22;;;8.84;100.00
36726;BME280;44936;52.086;5.150;2023-04-28T02:46:24;101763.06;;;8.86;100.00
36726;BME280;44936;52.086;5.150;2023-04-28T02:48:50;101760.34;;;8.83;100.00
36726;BME280;44936;52.086;5.150;2023-04-28T02:51:15;101763.13;;;8.89;100.00
36726;BME280;44936;52.086;5.150;2023-04-28T02:53:40;101719.03;;;8.68;100.00
36726;BME280;44936;52.086;5.150;2023-04-28T02:56:06;101731.34;;;8.73;100.00
36726;BME280;44936;52.086;5.150;2023-04-28T02:58:31;101739.53;;;8.87;100.00
36726;BME280;44936;52.086;5.150;2023-04-28T03:00:56;101739.56;;;8.89;100.00
36726;BME280;44936;52.086;5.150;2023-04-28T03:03:22;101734.34;;;8.89;100.00
36726;BME280;44936;52.086;5.150;2023-04-28T03:05:47;101729.81;;;8.82;100.00
36726;BME280;44936;52.086;5.150;2023-04-28T03:08:13;101722.75;;;8.77;100.00
36726;BME280;44936;52.086;5.150;2023-04-28T03:10:38;101714.06;;;8.80;100.00
36726;BME280;44936;52.086;5.150;2023-04-28T03:13:03;101716.50;;;8.72;100.00
36726;BME280;44936;52.086;5.150;2023-04-28T03:15:29;101725.25;;;8.74;100.00
36726;BME280;44936;52.086;5.150;2023-04-28T03:17:54;101730.75;;;8.84;100.00
36726;BME280;44936;52.086;5.150;2023-04-28T03:20:19;101728.78;;;8.75;100.00
36726;BME280;44936;52.086;5.150;2023-04-28T03:22:45;101730.81;;;8.87;100.00
36726;BME280;44936;52.086;5.150;2023-04-28T03:25:10;101718.44;;;8.79;100.00
36726;BME280;44936;52.086;5.150;2023-04-28T03:27:35;101711.59;;;8.85;100.00
36726;BME280;44936;52.086;5.150;2023-04-28T03:30:01;101717.53;;;8.79;100.00
36726;BME280;44936;52.086;5.150;2023-04-28T03:32:26;101699.00;;;8.70;100.00
36726;BME280;44936;52.086;5.150;2023-04-28T03:34:51;101712.19;;;8.74;100.00
36726;BME280;44936;52.086;5.150;2023-04-28T03:37:17;101708.81;;;8.78;100.00
36726;BME280;44936;52.086;5.150;2023-04-28T03:39:42;101688.38;;;8.62;100.00
36726;BME280;44936;52.086;5.150;2023-04-28T03:42:08;101698.28;;;8.75;100.00
36726;BME280;44936;52.086;5.150;2023-04-28T03:44:33;101700.81;;;8.72;100.00
36726;BME280;44936;52.086;5.150;2023-04-28T03:46:59;101698.28;;;8.75;100.00
36726;BME280;44936;52.086;5.150;2023-04-28T03:49:25;101698.34;;;8.78;100.00
36726;BME280;44936;52.086;5.150;2023-04-28T03:51:50;101673.53;;;8.61;100.00
36726;BME280;44936;52.086;5.150;2023-04-28T03:54:16;101687.88;;;8.78;100.00
36726;BME280;44936;52.086;5.150;2023-04-28T03:56:41;101667.50;;;8.65;100.00
36726;BME280;44936;52.086;5.150;2023-04-28T03:59:07;101679.81;;;8.69;100.00
36726;BME280;44936;52.086;5.150;2023-04-28T04:01:35;101673.69;;;8.67;100.00
36726;BME280;44936;52.086;5.150;2023-04-28T04:04:01;101665.97;;;8.73;100.00
36726;BME280;44936;52.086;5.150;2023-04-28T04:06:26;101669.41;;;8.72;100.00
36726;BME280;44936;52.086;5.150;2023-04-28T04:08:51;101679.81;;;8.69;100.00
36726;BME280;44936;52.086;5.150;2023-04-28T04:11:17;101666.75;;;8.69;100.00
36726;BME280;44936;52.086;5.150;2023-04-28T04:13:42;101663.34;;;8.73;100.00
36726;BME280;44936;52.086;5.150;2023-04-28T04:16:08;101663.34;;;8.73;100.00
36726;BME280;44936;52.086;5.150;2023-04-28T04:18:34;101669.41;;;8.72;100.00
36726;BME280;44936;52.086;5.150;2023-04-28T04:20:59;101659.16;;;8.80;100.00
36726;BME280;44936;52.086;5.150;2023-04-28T04:23:25;101655.50;;;8.73;100.00
36726;BME280;44936;52.086;5.150;2023-04-28T04:25:50;101645.97;;;8.75;100.00
36726;BME280;44936;52.086;5.150;2023-04-28T04:28:16;101646.03;;;8.78;100.00
36726;BME280;44936;52.086;5.150;2023-04-28T04:30:41;101633.63;;;8.70;100.00
36726;BME280;44936;52.086;5.150;2023-04-28T04:33:06;101636.44;;;8.77;100.00
36726;BME280;44936;52.086;5.150;2023-04-28T04:35:32;101637.13;;;8.70;100.00
36726;BME280;44936;52.086;5.150;2023-04-28T04:37:58;101631.25;;;8.80;100.00
36726;BME280;44936;52.086;5.150;2023-04-28T04:40:24;101621.47;;;8.72;100.00
36726;BME280;44936;52.086;5.150;2023-04-28T04:42:49;101619.69;;;8.71;100.00
36726;BME280;44936;52.086;5.150;2023-04-28T04:45:15;101623.44;;;8.82;100.00
36726;BME280;44936;52.086;5.150;2023-04-28T04:47:40;101615.66;;;8.84;100.00
36726;BME280;44936;52.086;5.150;2023-04-28T04:50:06;101611.38;;;8.89;100.00
36726;BME280;44936;52.086;5.150;2023-04-28T04:52:32;101603.34;;;8.79;100.00
36726;BME280;44936;52.086;5.150;2023-04-28T04:54:58;101608.63;;;8.83;100.00
36726;BME280;44936;52.086;5.150;2023-04-28T04:57:24;101603.38;;;8.83;100.00
36726;BME280;44936;52.086;5.150;2023-04-28T04:59:50;101598.94;;;8.78;100.00
36726;BME280;44936;52.086;5.150;2023-04-28T05:02:15;101598.22;;;8.84;100.00
36726;BME280;44936;52.086;5.150;2023-04-28T05:04:40;101558.59;;;8.67;100.00
36726;BME280;44936;52.086;5.150;2023-04-28T05:07:06;101581.56;;;8.80;100.00
36726;BME280;44936;52.086;5.150;2023-04-28T05:09:31;101606.13;;;8.87;100.00
36726;BME280;44936;52.086;5.150;2023-04-28T05:11:57;101596.41;;;8.82;100.00
36726;BME280;44936;52.086;5.150;2023-04-28T05:14:22;101628.94;;;8.93;100.00
36726;BME280;44936;52.086;5.150;2023-04-28T05:16:48;101622.75;;;8.91;100.00
36726;BME280;44936;52.086;5.150;2023-04-28T05:19:13;101616.06;;;9.03;100.00
36726;BME280;44936;52.086;5.150;2023-04-28T05:21:39;101590.50;;;8.92;100.00
36726;BME280;44936;52.086;5.150;2023-04-28T05:24:04;101592.69;;;9.11;100.00
36726;BME280;44936;52.086;5.150;2023-04-28T05:26:30;101589.19;;;9.11;100.00
36726;BME280;44936;52.086;5.150;2023-04-28T05:28:55;101579.59;;;9.11;100.00
36726;BME280;44936;52.086;5.150;2023-04-28T05:31:20;101579.72;;;9.17;100.00
36726;BME280;44936;52.086;5.150;2023-04-28T05:33:46;101531.72;;;9.17;100.00
36726;BME280;44936;52.086;5.150;2023-04-28T05:36:11;101548.06;;;9.05;100.00
36726;BME280;44936;52.086;5.150;2023-04-28T05:38:37;101552.13;;;8.91;100.00
36726;BME280;44936;52.086;5.150;2023-04-28T05:41:02;101552.09;;;8.89;100.00
36726;BME280;44936;52.086;5.150;2023-04-28T05:43:27;101540.59;;;8.83;100.00
36726;BME280;44936;52.086;5.150;2023-04-28T05:45:53;101510.59;;;8.65;100.00
36726;BME280;44936;52.086;5.150;2023-04-28T05:48:18;101512.63;;;8.78;100.00
36726;BME280;44936;52.086;5.150;2023-04-28T05:50:44;101512.59;;;8.75;100.00
36726;BME280;44936;52.086;5.150;2023-04-28T05:53:10;101506.50;;;8.76;100.00
36726;BME280;44936;52.086;5.150;2023-04-28T05:55:35;101502.22;;;8.82;100.00
36726;BME280;44936;52.086;5.150;2023-04-28T05:58:03;101496.81;;;8.74;100.00
36726;BME280;44936;52.086;5.150;2023-04-28T06:00:29;101493.53;;;8.83;100.00
36726;BME280;44936;52.086;5.150;2023-04-28T06:02:55;101482.19;;;8.82;100.00
36726;BME280;44936;52.086;5.150;2023-04-28T06:05:21;101453.22;;;8.73;100.00
36726;BME280;44936;52.086;5.150;2023-04-28T06:07:47;101454.16;;;8.75;100.00
36726;BME280;44936;52.086;5.150;2023-04-28T06:10:12;101454.22;;;8.78;100.00
36726;BME280;44936;52.086;5.150;2023-04-28T06:12:37;101445.47;;;8.77;100.00
36726;BME280;44936;52.086;5.150;2023-04-28T06:15:04;101453.38;;;8.80;100.00
36726;BME280;44936;52.086;5.150;2023-04-28T06:17:29;101428.75;;;8.69;100.00
36726;BME280;44936;52.086;5.150;2023-04-28T06:19:56;101423.56;;;8.71;100.00
36726;BME280;44936;52.086;5.150;2023-04-28T06:22:26;101406.31;;;8.80;100.00
36726;BME280;44936;52.086;5.150;2023-04-28T06:24:51;101408.13;;;8.85;100.00
36726;BME280;44936;52.086;5.150;2023-04-28T06:27:16;101402.91;;;8.85;100.00
36726;BME280;44936;52.086;5.150;2023-04-28T06:29:42;101388.91;;;8.83;100.00
36726;BME280;44936;52.086;5.150;2023-04-28T06:32:07;101389.19;;;8.98;100.00
36726;BME280;44936;52.086;5.150;2023-04-28T06:34:33;101379.56;;;8.95;100.00
36726;BME280;44936;52.086;5.150;2023-04-28T06:36:59;101392.84;;;9.07;100.00
36726;BME280;44936;52.086;5.150;2023-04-28T06:39:25;101398.06;;;9.06;100.00
36726;BME280;44936;52.086;5.150;2023-04-28T06:41:50;101391.03;;;9.02;100.00
36726;BME280;44936;52.086;5.150;2023-04-28T06:44:15;101390.97;;;9.00;100.00
36726;BME280;44936;52.086;5.150;2023-04-28T06:46:41;101368.25;;;8.98;100.00
36726;BME280;44936;52.086;5.150;2023-04-28T06:49:06;101369.28;;;9.06;100.00
36726;BME280;44936;52.086;5.150;2023-04-28T06:51:32;101377.28;;;9.15;100.00
36726;BME280;44936;52.086;5.150;2023-04-28T06:53:58;101368.66;;;9.19;100.00
36726;BME280;44936;52.086;5.150;2023-04-28T06:56:23;101366.13;;;9.27;100.00
36726;BME280;44936;52.086;5.150;2023-04-28T06:58:49;101359.28;;;9.35;100.00
36726;BME280;44936;52.086;5.150;2023-04-28T07:01:15;101361.13;;;9.39;100.00
36726;BME280;44936;52.086;5.150;2023-04-28T07:03:40;101373.38;;;9.43;100.00
36726;BME280;44936;52.086;5.150;2023-04-28T07:06:06;101374.47;;;9.54;100.00
36726;BME280;44936;52.086;5.150;2023-04-28T07:08:31;101355.06;;;9.45;100.00
36726;BME280;44936;52.086;5.150;2023-04-28T07:10:57;101385.28;;;9.77;100.00
36726;BME280;44936;52.086;5.150;2023-04-28T07:13:22;101394.16;;;9.87;100.00
36726;BME280;44936;52.086;5.150;2023-04-28T07:15:48;101390.72;;;9.91;100.00
36726;BME280;44936;52.086;5.150;2023-04-28T07:18:13;101409.06;;;9.91;100.00
36726;BME280;44936;52.086;5.150;2023-04-28T07:20:39;101418.75;;;9.98;100.00
36726;BME280;44936;52.086;5.150;2023-04-28T07:23:04;101413.75;;;10.15;100.00
36726;BME280;44936;52.086;5.150;2023-04-28T07:25:30;101420.63;;;10.07;100.00
36726;BME280;44936;52.086;5.150;2023-04-28T07:27:56;101419.09;;;10.21;100.00
36726;BME280;44936;52.086;5.150;2023-04-28T07:30:21;101412.25;;;10.29;100.00
36726;BME280;44936;52.086;5.150;2023-04-28T07:32:47;101424.63;;;10.39;100.00
36726;BME280;44936;52.086;5.150;2023-04-28T07:35:12;101427.19;;;10.35;100.00
36726;BME280;44936;52.086;5.150;2023-04-28T07:37:38;101426.44;;;10.43;100.00
36726;BME280;44936;52.086;5.150;2023-04-28T07:40:04;101425.50;;;10.40;100.00
36726;BME280;44936;52.086;5.150;2023-04-28T07:42:30;101418.50;;;10.40;100.00
36726;BME280;44936;52.086;5.150;2023-04-28T07:44:55;101430.63;;;10.32;100.00
36726;BME280;44936;52.086;5.150;2023-04-28T07:47:22;101434.22;;;10.39;100.00
36726;BME280;44936;52.086;5.150;2023-04-28T07:49:48;101428.19;;;10.44;100.00
36726;BME280;44936;52.086;5.150;2023-04-28T07:52:13;101413.38;;;10.51;100.00
36726;BME280;44936;52.086;5.150;2023-04-28T07:54:38;101393.16;;;10.39;100.00
36726;BME280;44936;52.086;5.150;2023-04-28T07:57:04;101409.06;;;10.55;100.00
36726;BME280;44936;52.086;5.150;2023-04-28T07:59:34;101419.66;;;10.61;100.00
36726;BME280;44936;52.086;5.150;2023-04-28T08:02:00;101416.28;;;10.72;100.00
36726;BME280;44936;52.086;5.150;2023-04-28T08:04:26;101416.31;;;10.77;100.00
36726;BME280;44936;52.086;5.150;2023-04-28T08:06:52;101418.03;;;10.72;100.00
36726;BME280;44936;52.086;5.150;2023-04-28T08:09:17;101403.06;;;10.62;100.00
36726;BME280;44936;52.086;5.150;2023-04-28T08:11:44;101414.63;;;10.79;100.00
36726;BME280;44936;52.086;5.150;2023-04-28T08:14:10;101398.81;;;10.73;100.00
36726;BME280;44936;52.086;5.150;2023-04-28T08:16:35;101398.88;;;10.79;100.00
36726;BME280;44936;52.086;5.150;2023-04-28T08:19:04;101385.03;;;10.95;100.00
36726;BME280;44936;52.086;5.150;2023-04-28T08:21:29;101384.06;;;10.86;100.00
36726;BME280;44936;52.086;5.150;2023-04-28T08:23:55;101373.72;;;11.01;100.00
36726;BME280;44936;52.086;5.150;2023-04-28T08:26:20;101357.19;;;11.13;100.00
36726;BME280;44936;52.086;5.150;2023-04-28T08:28:45;101343.25;;;11.15;100.00
36726;BME280;44936;52.086;5.150;2023-04-28T08:31:10;101345.13;;;11.33;100.00
36726;BME280;44936;52.086;5.150;2023-04-28T08:33:36;101349.38;;;11.20;100.00
36726;BME280;44936;52.086;5.150;2023-04-28T08:36:01;101343.34;;;11.29;100.00
36726;BME280;44936;52.086;5.150;2023-04-28T08:38:27;101349.66;;;11.57;100.00
36726;BME280;44936;52.086;5.150;2023-04-28T08:40:53;101336.44;;;11.43;100.00
36726;BME280;44936;52.086;5.150;2023-04-28T08:43:18;101343.44;;;11.41;100.00
36726;BME280;44936;52.086;5.150;2023-04-28T08:45:45;101347.84;;;11.42;100.00
36726;BME280;44936;52.086;5.150;2023-04-28T08:48:21;101329.34;;;11.30;100.00
36726;BME280;44936;52.086;5.150;2023-04-28T08:50:51;101347.97;;;11.62;100.00
36726;BME280;44936;52.086;5.150;2023-04-28T08:53:23;101327.75;;;11.53;100.00
36726;BME280;44936;52.086;5.150;2023-04-28T08:55:55;101338.34;;;11.62;100.00
36726;BME280;44936;52.086;5.150;2023-04-28T08:58:24;101327.84;;;11.66;100.00
36726;BME280;44936;52.086;5.150;2023-04-28T09:00:51;101313.81;;;11.57;100.00
36726;BME280;44936;52.086;5.150;2023-04-28T09:03:17;101327.81;;;11.62;100.00
36726;BME280;44936;52.086;5.150;2023-04-28T09:05:43;101339.25;;;11.66;100.00
36726;BME280;44936;52.086;5.150;2023-04-28T09:08:08;101341.88;;;11.68;100.00
36726;BME280;44936;52.086;5.150;2023-04-28T09:10:36;101308.50;;;11.54;100.00
36726;BME280;44936;52.086;5.150;2023-04-28T09:13:02;101329.63;;;11.73;100.00
36726;BME280;44936;52.086;5.150;2023-04-28T09:15:37;101313.94;;;11.80;100.00
36726;BME280;44936;52.086;5.150;2023-04-28T09:18:06;101318.38;;;11.92;100.00
36726;BME280;44936;52.086;5.150;2023-04-28T09:20:34;101308.75;;;11.89;100.00
36726;BME280;44936;52.086;5.150;2023-04-28T09:25:37;101319.34;;;12.03;100.00
36726;BME280;44936;52.086;5.150;2023-04-28T09:28:21;101324.59;;;12.08;100.00
36726;BME280;44936;52.086;5.150;2023-04-28T09:30:47;101323.75;;;12.10;100.00
36726;BME280;44936;52.086;5.150;2023-04-28T09:33:12;101320.25;;;12.13;100.00
36726;BME280;44936;52.086;5.150;2023-04-28T09:35:39;101328.19;;;12.27;100.00
36726;BME280;44936;52.086;5.150;2023-04-28T09:38:05;101326.47;;;12.36;100.00
36726;BME280;44936;52.086;5.150;2023-04-28T09:40:30;101328.22;;;12.36;100.00
36726;BME280;44936;52.086;5.150;2023-04-28T09:42:56;101332.63;;;12.41;100.00
36726;BME280;44936;52.086;5.150;2023-04-28T09:45:22;101326.50;;;12.53;100.00
36726;BME280;44936;52.086;5.150;2023-04-28T09:47:48;101323.91;;;12.59;100.00
36726;BME280;44936;52.086;5.150;2023-04-28T09:50:15;101340.56;;;12.58;100.00
36726;BME280;44936;52.086;5.150;2023-04-28T09:52:42;101342.34;;;12.59;100.00
36726;BME280;44936;52.086;5.150;2023-04-28T09:55:14;101345.84;;;12.55;100.00
36726;BME280;44936;52.086;5.150;2023-04-28T09:57:39;101337.03;;;12.53;100.00
36726;BME280;44936;52.086;5.150;2023-04-28T10:00:06;101337.91;;;12.51;100.00
36726;BME280;44936;52.086;5.150;2023-04-28T10:02:36;101335.31;;;12.60;100.00
36726;BME280;44936;52.086;5.150;2023-04-28T10:05:02;101332.69;;;12.61;100.00
36726;BME280;44936;52.086;5.150;2023-04-28T10:07:32;101331.78;;;12.48;100.00
36726;BME280;44936;52.086;5.150;2023-04-28T10:10:00;101282.63;;;12.29;100.00
36726;BME280;44936;52.086;5.150;2023-04-28T10:12:28;101305.47;;;12.53;100.00
36726;BME280;44936;52.086;5.150;2023-04-28T10:14:53;101265.97;;;12.35;100.00
36726;BME280;44936;52.086;5.150;2023-04-28T10:17:20;101278.25;;;12.42;100.00
36726;BME280;44936;52.086;5.150;2023-04-28T10:19:47;101280.03;;;12.37;100.00
36726;BME280;44936;52.086;5.150;2023-04-28T10:27:37;101252.78;;;12.21;100.00
36726;BME280;44936;52.086;5.150;2023-04-28T10:30:24;101238.78;;;12.28;100.00
36726;BME280;44936;52.086;5.150;2023-04-28T10:38:09;101231.78;;;12.41;100.00
36726;BME280;44936;52.086;5.150;2023-04-28T10:40:35;101232.66;;;12.38;100.00
36726;BME280;44936;52.086;5.150;2023-04-28T10:43:01;101237.94;;;12.57;100.00
36726;BME280;44936;52.086;5.150;2023-04-28T10:56:21;101202.88;;;12.68;100.00
36726;BME280;44936;52.086;5.150;2023-04-28T10:58:49;101167.78;;;12.68;100.00
36726;BME280;44936;52.086;5.150;2023-04-28T11:06:19;101140.59;;;12.64;100.00
36726;BME280;44936;52.086;5.150;2023-04-28T11:08:46;101161.59;;;13.01;100.00
36726;BME280;44936;52.086;5.150;2023-04-28T11:11:12;101129.13;;;13.00;100.00
36726;BME280;44936;52.086;5.150;2023-04-28T11:13:38;101094.06;;;12.86;100.00
36726;BME280;44936;52.086;5.150;2023-04-28T11:16:05;101102.78;;;12.97;100.00
36726;BME280;44936;52.086;5.150;2023-04-28T11:21:18;101124.69;;;13.28;100.00
36726;BME280;44936;52.086;5.150;2023-04-28T11:23:46;101090.41;;;13.31;100.00
36726;BME280;44936;52.086;5.150;2023-04-28T11:26:11;101117.56;;;13.52;100.00
36726;BME280;44936;52.086;5.150;2023-04-28T11:28:51;101134.22;;;13.58;100.00
36726;BME280;44936;52.086;5.150;2023-04-28T11:31:17;101140.31;;;13.68;100.00
36726;BME280;44936;52.086;5.150;2023-04-28T11:34:31;101113.97;;;13.70;100.00
36726;BME280;44936;52.086;5.150;2023-04-28T11:36:41;101128.88;;;13.74;100.00
36726;BME280;44936;52.086;5.150;2023-04-28T11:39:08;101141.19;;;13.67;100.00
36726;BME280;44936;52.086;5.150;2023-04-28T11:41:42;101128.06;;;13.58;100.00
36726;BME280;44936;52.086;5.150;2023-04-28T11:44:12;101190.44;;;13.64;100.00
36726;BME280;44936;52.086;5.150;2023-04-28T11:46:52;101194.84;;;13.57;100.00
36726;BME280;44936;52.086;5.150;2023-04-28T11:49:44;101208.00;;;13.65;100.00
36726;BME280;44936;52.086;5.150;2023-04-28T11:52:10;101222.00;;;13.79;100.00
36726;BME280;44936;52.086;5.150;2023-04-28T11:54:37;101232.56;;;13.68;100.00
36726;BME280;44936;52.086;5.150;2023-04-28T11:57:03;101215.06;;;13.47;100.00
36726;BME280;44936;52.086;5.150;2023-04-28T11:59:38;101224.75;;;13.38;100.00
36726;BME280;44936;52.086;5.150;2023-04-28T12:02:05;101264.22;;;13.59;100.00
36726;BME280;44936;52.086;5.150;2023-04-28T12:04:38;101258.13;;;13.54;100.00
36726;BME280;44936;52.086;5.150;2023-04-28T12:07:12;101230.00;;;13.47;100.00
36726;BME280;44936;52.086;5.150;2023-04-28T12:10:10;101226.50;;;13.40;100.00
36726;BME280;44936;52.086;5.150;2023-04-28T12:12:39;101225.69;;;13.26;100.00
36726;BME280;44936;52.086;5.150;2023-04-28T12:15:07;101257.25;;;13.44;100.00
36726;BME280;44936;52.086;5.150;2023-04-28T12:17:37;101208.97;;;13.15;100.00
36726;BME280;44936;52.086;5.150;2023-04-28T12:20:08;101230.03;;;13.41;100.00
36726;BME280;44936;52.086;5.150;2023-04-28T12:22:47;101211.56;;;13.41;100.00
36726;BME280;44936;52.086;5.150;2023-04-28T12:25:15;101242.22;;;13.69;100.00
36726;BME280;44936;52.086;5.150;2023-04-28T12:27:58;101247.56;;;13.57;100.00
36726;BME280;44936;52.086;5.150;2023-04-28T12:30:28;101256.34;;;13.54;100.00
36726;BME280;44936;52.086;5.150;2023-04-28T12:32:54;101267.72;;;13.70;100.00
36726;BME280;44936;52.086;5.150;2023-04-28T12:35:24;101263.31;;;13.69;100.00
36726;BME280;44936;52.086;5.150;2023-04-28T12:37:51;101262.44;;;13.69;100.00
36726;BME280;44936;52.086;5.150;2023-04-28T12:40:17;101289.69;;;13.80;100.00
36726;BME280;44936;52.086;5.150;2023-04-28T12:42:42;101315.13;;;13.82;100.00
36726;BME280;44936;52.086;5.150;2023-04-28T12:45:08;101325.69;;;13.81;100.00
36726;BME280;44936;52.086;5.150;2023-04-28T12:47:34;101295.00;;;13.48;100.00
36726;BME280;44936;52.086;5.150;2023-04-28T12:50:03;101331.88;;;13.72;100.00
36726;BME280;44936;52.086;5.150;2023-04-28T12:52:29;101331.84;;;13.81;100.00
36726;BME280;44936;52.086;5.150;2023-04-28T12:54:57;101325.69;;;13.84;100.00
36726;BME280;44936;52.086;5.150;2023-04-28T12:57:23;101314.31;;;13.65;100.00
36726;BME280;44936;52.086;5.150;2023-04-28T12:59:48;101309.06;;;13.62;100.00
36726;BME280;44936;52.086;5.150;2023-04-28T13:02:16;101320.47;;;13.70;100.00
36726;BME280;44936;52.086;5.150;2023-04-28T13:04:44;101293.25;;;13.45;100.00
36726;BME280;44936;52.086;5.150;2023-04-28T13:07:19;101282.72;;;13.45;100.00
36726;BME280;44936;52.086;5.150;2023-04-28T13:09:46;101295.00;;;13.55;100.00
36726;BME280;44936;52.086;5.150;2023-04-28T13:12:11;101287.09;;;13.51;100.00
36726;BME280;44936;52.086;5.150;2023-04-28T13:14:37;101293.22;;;13.62;100.00